Time;durP1;ratioP1;P1;durP2;ratioP2;P2;SDS_P1;SDS_P2;PMS_P1;PMS_P2;Temp;Humidity;BMP_temperature;BMP_pressure;BME280_temperature;BME280_humidity;BME280_pressure;Samples;Min_cycle;Max_cycle;Signal;HPM_P1;HPM_P2
2021/08/15 00:00:24;;;;;;;;;;;;;;;19.61;58.70;99449.31;4939297;29;20070;-75
2021/08/15 00:02:50;;;;;;;32.97;12.98;;;;;;;19.66;58.45;99448.31;4937272;29;19926;-74
2021/08/15 00:05:16;;;;;;;36.78;14.05;;;;;;;19.79;58.19;99447.16;4935658;29;20094;-74
2021/08/15 00:07:47;;;;;;;35.75;15.27;;;;;;;19.81;58.31;99436.53;4937184;29;20059;-74
2021/08/15 00:10:13;;;;;;;33.15;15.85;;;;;;;19.78;58.42;99439.19;4937036;29;20492;-74
2021/08/15 00:12:39;;;;;;;39.28;16.05;;;;;;;19.65;58.71;99432.81;4937328;29;20083;-75
2021/08/15 00:15:08;;;;;;;39.90;16.80;;;;;;;19.58;58.82;99433.38;4948417;29;20052;-74
2021/08/15 00:17:34;;;;;;;38.15;15.02;;;;;;;19.52;58.94;99427.25;4947492;29;20047;-74
2021/08/15 00:20:01;;;;;;;35.27;14.80;;;;;;;19.52;58.83;99432.00;4935932;29;20143;-75
2021/08/15 00:22:30;;;;;;;30.38;15.50;;;;;;;19.37;59.29;99439.00;4936759;29;20058;-74
2021/08/15 00:24:57;;;;;;;31.63;14.98;;;;;;;19.39;59.19;99431.97;4935232;29;20134;-74
2021/08/15 00:27:26;;;;;;;30.48;13.55;;;;;;;19.48;59.25;99437.41;4935333;29;20052;-74
2021/08/15 00:30:03;;;;;;;32.28;14.32;;;;;;;19.45;58.83;99435.34;4935392;29;20071;-75
2021/08/15 00:32:33;;;;;;;35.65;14.13;;;;;;;19.39;59.07;99423.66;4919342;29;20435;-74
2021/08/15 00:35:03;;;;;;;34.80;14.35;;;;;;;19.37;59.24;99422.38;4936445;29;20105;-74
2021/08/15 00:37:33;;;;;;;33.88;14.25;;;;;;;19.38;59.09;99421.22;4919562;29;20071;-74
2021/08/15 00:40:14;;;;;;;34.17;13.73;;;;;;;19.35;59.19;99421.91;4936524;29;20055;-74
2021/08/15 00:42:43;;;;;;;28.98;13.93;;;;;;;19.14;59.62;99408.94;4936310;29;20050;-74
2021/08/15 00:45:12;;;;;;;34.88;13.80;;;;;;;19.18;59.75;99423.72;4936378;29;20050;-74
2021/08/15 00:47:41;;;;;;;28.77;13.65;;;;;;;19.12;59.57;99417.59;4936228;29;20066;-74
2021/08/15 00:50:10;;;;;;;28.48;13.18;;;;;;;19.18;59.56;99414.59;4919036;29;20070;-74
2021/08/15 00:52:39;;;;;;;27.15;13.23;;;;;;;19.10;59.45;99408.00;4919156;29;20465;-74
2021/08/15 00:55:11;;;;;;;29.85;13.13;;;;;;;19.12;59.42;99417.59;4934412;29;20074;-74
2021/08/15 00:57:44;;;;;;;25.60;13.05;;;;;;;19.17;59.53;99421.28;4915918;29;20125;-74
2021/08/15 01:00:16;;;;;;;26.42;13.35;;;;;;;19.15;59.34;99416.09;4932676;29;20071;-74
2021/08/15 01:02:47;;;;;;;28.75;12.65;;;;;;;19.11;59.72;99412.38;4919013;29;20110;-74
2021/08/15 01:05:17;;;;;;;28.95;12.80;;;;;;;19.08;59.60;99413.88;4934502;29;20099;-74
2021/08/15 01:07:46;;;;;;;30.17;13.88;;;;;;;19.06;59.40;99416.19;4935824;29;20052;-74
2021/08/15 01:10:16;;;;;;;30.10;13.35;;;;;;;19.00;59.78;99414.78;4918733;29;20489;-74
2021/08/15 01:12:47;;;;;;;33.08;13.98;;;;;;;18.95;60.23;99410.22;4918829;29;20075;-75
2021/08/15 01:15:15;;;;;;;28.00;13.52;;;;;;;18.93;60.25;99415.28;4934817;29;20039;-74
2021/08/15 01:17:43;;;;;;;;;;;;;;;18.92;59.93;99412.88;4934865;29;20067;-74
2021/08/15 01:20:14;;;;;;;27.38;14.10;;;;;;;18.79;60.33;99404.53;4934446;29;19927;-74
2021/08/15 01:22:44;;;;;;;29.13;13.77;;;;;;;18.73;60.73;99413.38;4935545;29;20572;-74
2021/08/15 01:25:11;;;;;;;31.85;13.68;;;;;;;18.71;60.77;99413.72;4933873;29;20052;-74
2021/08/15 01:27:43;;;;;;;28.48;14.02;;;;;;;18.78;60.64;99402.91;4935558;29;20535;-74
2021/08/15 01:30:14;;;;;;;29.92;14.32;;;;;;;18.76;60.61;99396.91;4935429;29;20047;-74
2021/08/15 01:32:45;;;;;;;30.95;13.63;;;;;;;18.73;60.49;99403.09;4935359;29;20066;-74
2021/08/15 01:35:12;;;;;;;31.40;13.85;;;;;;;18.77;60.47;99398.53;4933168;29;20059;-75
2021/08/15 01:37:41;;;;;;;23.55;12.82;;;;;;;18.69;60.66;99399.41;4934106;29;20138;-74
2021/08/15 01:40:12;;;;;;;25.75;13.15;;;;;;;18.75;60.47;99395.28;4935335;29;20078;-74
2021/08/15 01:42:41;;;;;;;25.88;13.30;;;;;;;18.76;59.96;99393.31;4935104;29;20055;-74
2021/08/15 01:45:13;;;;;;;30.50;12.70;;;;;;;18.80;60.12;99405.31;4918118;29;20500;-74
2021/08/15 01:47:42;;;;;;;26.95;12.63;;;;;;;18.75;59.96;99403.59;4935245;29;20056;-74
2021/08/15 01:50:11;;;;;;;26.40;11.77;;;;;;;18.52;60.99;99403.94;4935135;29;20043;-74
2021/08/15 01:52:37;;;;;;;22.92;11.85;;;;;;;18.62;60.64;99401.91;4933207;29;20079;-74
2021/08/15 01:55:08;;;;;;;29.88;11.90;;;;;;;18.56;60.43;99402.09;4933756;29;20051;-74
2021/08/15 01:57:37;;;;;;;27.17;12.05;;;;;;;18.63;60.36;99395.22;4935089;29;20057;-74
2021/08/15 02:00:07;;;;;;;23.23;11.55;;;;;;;18.68;60.12;99397.78;4933641;29;20050;-73
2021/08/15 02:02:44;;;;;;;28.88;12.48;;;;;;;18.62;60.52;99390.84;4914825;29;20047;-74
2021/08/15 02:05:20;;;;;;;23.35;11.90;;;;;;;18.55;60.41;99389.41;4916013;29;20127;-75
2021/08/15 02:07:54;;;;;;;22.95;11.27;;;;;;;18.56;60.63;99390.22;4915918;29;20048;-75
2021/08/15 02:10:23;;;;;;;24.52;11.25;;;;;;;18.55;60.57;99392.19;4898687;29;20055;-75
2021/08/15 02:12:52;;;;;;;23.27;12.20;;;;;;;18.50;60.81;99391.59;4932367;29;20088;-75
2021/08/15 02:15:21;;;;;;;21.88;11.60;;;;;;;18.41;61.32;99395.22;4933379;29;20099;-75
2021/08/15 02:17:49;;;;;;;20.05;11.40;;;;;;;18.42;60.70;99394.09;4933393;29;20051;-75
2021/08/15 02:20:18;;;;;;;;;;;;;;;18.41;61.18;99388.88;4933754;29;20044;-75
2021/08/15 02:22:47;;;;;;;25.95;11.32;;;;;;;18.27;61.49;99403.00;4934660;29;19926;-75
2021/08/15 02:25:18;;;;;;;21.48;11.02;;;;;;;18.19;61.65;99392.81;4933328;29;20067;-75
2021/08/15 02:27:48;;;;;;;22.58;11.95;;;;;;;18.16;61.88;99393.47;4933318;29;20095;-74
2021/08/15 02:30:17;;;;;;;31.95;12.85;;;;;;;18.13;61.85;99401.28;4932369;29;20107;-74
2021/08/15 02:32:48;;;;;;;24.05;12.02;;;;;;;18.04;62.28;99385.91;4933310;29;20047;-74
2021/08/15 02:35:17;;;;;;;24.70;12.80;;;;;;;18.06;62.11;99398.25;4934532;29;20058;-74
2021/08/15 02:37:48;;;;;;;25.40;13.27;;;;;;;17.98;62.15;99388.84;4934457;29;20054;-74
2021/08/15 02:40:20;;;;;;;27.02;13.65;;;;;;;18.03;62.43;99387.03;4933048;29;20393;-75
2021/08/15 02:42:51;;;;;;;23.23;12.43;;;;;;;17.98;62.94;99390.78;4933308;29;20052;-74
2021/08/15 02:45:22;;;;;;;25.02;13.07;;;;;;;18.04;62.31;99385.91;4934322;29;20139;-75
2021/08/15 02:47:53;;;;;;;24.95;12.65;;;;;;;18.14;62.26;99389.06;4917437;29;20058;-74
2021/08/15 02:50:23;;;;;;;25.27;12.32;;;;;;;18.17;61.76;99384.00;4934123;29;20059;-74
2021/08/15 02:52:52;;;;;;;28.13;12.88;;;;;;;18.21;61.42;99380.25;4932960;29;20437;-74
2021/08/15 02:55:18;;;;;;;27.13;12.80;;;;;;;18.28;61.17;99385.25;4934320;29;20064;-74
2021/08/15 02:57:44;;;;;;;25.98;12.35;;;;;;;18.23;61.42;99385.44;4933985;29;20456;-74
2021/08/15 03:00:14;;;;;;;28.50;13.23;;;;;;;18.23;61.15;99366.88;4934231;29;20052;-74
2021/08/15 03:02:43;;;;;;;25.15;12.60;;;;;;;18.33;60.96;99382.25;4934164;29;20075;-74
2021/08/15 03:05:13;;;;;;;27.77;13.60;;;;;;;18.23;61.06;99377.16;4917395;29;20056;-74
2021/08/15 03:07:40;;;;;;;30.25;14.23;;;;;;;18.08;61.98;99375.78;4933522;29;20146;-74
2021/08/15 03:10:07;;;;;;;31.60;14.32;;;;;;;17.97;61.62;99378.09;4932743;29;20151;-74
2021/08/15 03:12:37;;;;;;;29.02;13.35;;;;;;;17.95;61.56;99381.22;4934118;29;20048;-74
2021/08/15 03:15:03;;;;;;;29.70;13.13;;;;;;;17.94;61.89;99373.25;4934090;29;20051;-74
2021/08/15 03:17:33;;;;;;;29.77;14.13;;;;;;;17.99;61.90;99379.41;4932660;29;20051;-74
2021/08/15 03:20:02;;;;;;;27.08;13.00;;;;;;;18.03;62.18;99378.75;4933032;29;20103;-74
2021/08/15 03:22:33;;;;;;;25.55;13.48;;;;;;;18.05;61.85;99387.50;4917016;29;20055;-74
2021/08/15 03:25:02;;;;;;;28.05;12.98;;;;;;;18.03;61.73;99385.09;4937581;29;20469;-74
2021/08/15 03:27:28;;;;;;;28.23;13.20;;;;;;;18.06;62.01;99381.66;4919700;29;20048;-74
2021/08/15 03:29:57;;;;;;;32.22;13.30;;;;;;;18.02;62.27;99380.69;4937486;29;20056;-74
2021/08/15 03:32:26;;;;;;;27.08;12.45;;;;;;;17.96;61.89;99376.47;4937526;29;20062;-74
2021/08/15 03:34:52;;;;;;;26.45;13.35;;;;;;;17.90;62.13;99373.09;4937494;29;20424;-74
2021/08/15 03:37:18;;;;;;;24.45;12.77;;;;;;;18.02;61.73;99377.91;4920218;29;20428;-74
2021/08/15 03:39:45;;;;;;;26.42;12.27;;;;;;;18.17;61.51;99378.47;4936301;29;20051;-74
2021/08/15 03:42:12;;;;;;;25.42;13.25;;;;;;;18.20;61.34;99370.31;4937584;29;20138;-74
2021/08/15 03:44:38;;;;;;;23.45;12.10;;;;;;;18.26;61.20;99370.94;4936038;29;20503;-74
2021/08/15 03:47:04;;;;;;;27.45;12.88;;;;;;;18.32;61.27;99374.31;4935465;29;20115;-74
2021/08/15 03:49:30;;;;;;;26.48;12.55;;;;;;;18.34;61.45;99377.56;4937270;29;20053;-74
2021/08/15 03:51:56;;;;;;;25.25;12.45;;;;;;;18.37;61.70;99368.56;4936314;29;20175;-74
2021/08/15 03:54:22;;;;;;;25.58;12.77;;;;;;;18.42;61.51;99376.69;4936871;29;20051;-74
2021/08/15 03:56:53;;;;;;;34.40;13.27;;;;;;;18.47;61.28;99370.94;4936194;29;20722;-74
2021/08/15 03:59:22;;;;;;;23.80;12.23;;;;;;;18.52;61.59;99367.94;4919965;29;20079;-74
2021/08/15 04:01:51;;;;;;;25.10;11.93;;;;;;;18.55;61.05;99364.50;4936088;29;20051;-74
2021/08/15 04:04:17;;;;;;;23.30;12.15;;;;;;;18.63;61.06;99373.88;4936883;29;20063;-73
2021/08/15 04:06:44;;;;;;;27.90;12.15;;;;;;;18.69;60.70;99371.72;4935618;29;20051;-74
2021/08/15 04:09:13;;;;;;;29.05;12.05;;;;;;;18.62;61.42;99365.94;4937718;29;20048;-74
2021/08/15 04:11:39;;;;;;;27.52;11.88;;;;;;;18.68;61.26;99361.78;4937202;29;20070;-74
2021/08/15 04:14:10;;;;;;;30.73;12.43;;;;;;;18.77;61.04;99356.97;4936770;29;20440;-74
2021/08/15 04:16:39;;;;;;;23.10;11.82;;;;;;;18.78;61.05;99358.59;4935905;29;20044;-74
2021/08/15 04:19:08;;;;;;;24.90;12.75;;;;;;;18.82;61.31;99351.22;4937454;29;20189;-73
2021/08/15 04:21:34;;;;;;;23.50;12.23;;;;;;;19.02;61.16;99361.81;4946859;29;20463;-73
2021/08/15 04:24:00;;;;;;;21.98;11.13;;;;;;;19.04;61.12;99368.59;4945844;29;20063;-73
2021/08/15 04:26:26;;;;;;;23.75;11.10;;;;;;;19.15;60.62;99354.31;4938333;29;20087;-74
2021/08/15 04:28:55;;;;;;;25.38;11.45;;;;;;;19.13;60.63;99352.72;4940279;29;20544;-74
2021/08/15 04:31:23;;;;;;;25.65;11.23;;;;;;;19.23;60.17;99358.97;4939511;29;20103;-74
2021/08/15 04:33:49;;;;;;;24.52;11.93;;;;;;;19.33;60.41;99354.94;4934982;29;20508;-75
2021/08/15 04:36:18;;;;;;;24.80;12.23;;;;;;;19.35;59.89;99345.09;4934653;29;20119;-75
2021/08/15 04:38:47;;;;;;;26.38;13.13;;;;;;;19.43;59.93;99351.69;4936485;29;20051;-75
2021/08/15 04:41:13;;;;;;;29.15;12.85;;;;;;;19.49;60.16;99346.72;4936584;29;20050;-75
2021/08/15 04:43:39;;;;;;;23.38;12.45;;;;;;;19.53;59.16;99351.25;4918532;29;20043;-75
2021/08/15 04:46:08;;;;;;;21.20;11.32;;;;;;;19.53;59.02;99342.94;4934853;29;20079;-75
2021/08/15 04:48:36;;;;;;;24.90;11.30;;;;;;;19.56;59.08;99342.22;4936326;29;20500;-75
2021/08/15 04:51:05;;;;;;;29.45;11.07;;;;;;;19.54;59.08;99344.53;4935863;29;20095;-75
2021/08/15 04:53:31;;;;;;;24.52;10.90;;;;;;;19.59;58.96;99345.47;4934503;29;20432;-75
2021/08/15 04:55:57;;;;;;;23.05;9.85;;;;;;;19.58;59.12;99338.31;4934764;29;20154;-75
2021/08/15 04:58:26;;;;;;;18.98;9.38;;;;;;;19.59;59.26;99337.97;4936052;29;20576;-75
2021/08/15 05:00:56;;;;;;;23.55;9.80;;;;;;;19.63;59.07;99341.66;4919056;29;20055;-75
2021/08/15 05:03:22;;;;;;;20.48;9.20;;;;;;;19.65;58.86;99336.56;4934094;29;20059;-73
2021/08/15 05:05:49;;;;;;;23.08;8.90;;;;;;;19.61;58.81;99332.88;4936018;29;20576;-74
2021/08/15 05:08:15;;;;;;;;;;;;;;;19.70;58.67;99335.53;4935088;29;20524;-73
2021/08/15 05:10:42;;;;;;;23.02;10.27;;;;;;;19.73;58.70;99340.38;4935810;29;19934;-73
2021/08/15 05:13:12;;;;;;;18.35;9.35;;;;;;;19.65;58.74;99331.03;4918634;29;20111;-74
2021/08/15 05:15:41;;;;;;;19.75;8.75;;;;;;;19.63;58.38;99335.31;4935728;29;20485;-74
2021/08/15 05:18:12;;;;;;;19.67;8.65;;;;;;;19.65;58.27;99333.78;4934419;29;20055;-74
2021/08/15 05:20:38;;;;;;;18.83;8.45;;;;;;;19.71;58.11;99331.59;4934006;29;20061;-74
2021/08/15 05:23:09;;;;;;;18.58;8.00;;;;;;;19.79;58.12;99336.22;4933924;29;20052;-74
2021/08/15 05:25:38;;;;;;;18.67;8.68;;;;;;;19.79;58.16;99324.31;4934272;29;20043;-74
2021/08/15 05:28:05;;;;;;;19.60;8.93;;;;;;;19.89;58.14;99332.16;4934227;29;20059;-74
2021/08/15 05:30:31;;;;;;;24.00;8.60;;;;;;;19.88;58.19;99324.19;4934053;29;20048;-74
2021/08/15 05:33:00;;;;;;;18.57;9.37;;;;;;;19.97;58.30;99325.69;4935558;29;20051;-74
2021/08/15 05:35:29;;;;;;;17.45;8.07;;;;;;;20.00;57.67;99315.88;4934918;29;20050;-73
2021/08/15 05:37:59;;;;;;;16.55;8.23;;;;;;;20.02;57.97;99321.06;4935784;29;20574;-74
2021/08/15 05:40:26;;;;;;;16.67;8.10;;;;;;;20.09;58.11;99321.28;4934497;29;20057;-74
2021/08/15 05:42:52;;;;;;;19.50;7.90;;;;;;;20.07;58.06;99309.72;4934305;29;20040;-74
2021/08/15 05:45:21;;;;;;;19.45;7.45;;;;;;;20.19;57.59;99318.03;4919037;29;20055;-74
2021/08/15 05:47:50;;;;;;;17.45;7.28;;;;;;;20.23;57.11;99316.16;4934672;29;20059;-74
2021/08/15 05:50:20;;;;;;;16.33;6.97;;;;;;;20.28;57.08;99309.53;4934434;29;20605;-74
2021/08/15 05:52:46;;;;;;;17.77;7.25;;;;;;;20.30;56.85;99314.75;4935719;29;20107;-74
2021/08/15 05:55:12;;;;;;;19.77;6.93;;;;;;;20.29;56.86;99311.16;4934487;29;20043;-73
2021/08/15 05:57:43;;;;;;;14.27;6.82;;;;;;;20.33;56.90;99311.28;4952668;29;20084;-74
2021/08/15 06:00:09;;;;;;;15.57;7.15;;;;;;;20.35;56.89;99315.28;4955557;29;20051;-74
2021/08/15 06:02:38;;;;;;;19.48;7.68;;;;;;;20.46;57.14;99314.78;4954656;29;20450;-74
2021/08/15 06:05:05;;;;;;;15.75;7.80;;;;;;;20.48;57.95;99302.19;4955321;29;20083;-74
2021/08/15 06:07:35;;;;;;;17.50;7.20;;;;;;;20.56;57.70;99303.19;4939491;29;20047;-75
2021/08/15 06:10:01;;;;;;;14.98;6.60;;;;;;;20.59;56.85;99296.09;4944358;29;20489;-74
2021/08/15 06:12:27;;;;;;;16.23;6.70;;;;;;;20.65;56.77;99300.25;4935773;29;20043;-74
2021/08/15 06:14:54;;;;;;;13.10;6.43;;;;;;;20.65;56.67;99303.81;4935992;29;20051;-74
2021/08/15 06:17:23;;;;;;;;;;;;;;;20.64;56.21;99306.97;4938256;29;20052;-74
2021/08/15 06:19:49;;;;;;;16.75;6.30;;;;;;;20.66;56.05;99296.31;4917936;29;20434;-75
2021/08/15 06:22:18;;;;;;;13.35;5.95;;;;;;;20.72;56.50;99294.88;4917735;29;20052;-74
2021/08/15 06:24:47;;;;;;;11.85;5.95;;;;;;;20.81;56.44;99298.34;4934757;29;20599;-74
2021/08/15 06:27:13;;;;;;;20.02;5.90;;;;;;;20.86;56.07;99293.66;4934800;29;20050;-74
2021/08/15 06:29:42;;;;;;;15.60;5.53;;;;;;;20.91;55.74;99287.84;4933335;29;20067;-75
2021/08/15 06:32:10;;;;;;;11.85;5.80;;;;;;;20.93;55.14;99286.31;4932793;29;20517;-75
2021/08/15 06:34:36;;;;;;;12.48;6.40;;;;;;;21.02;55.00;99285.34;4934096;29;20098;-74
2021/08/15 06:37:06;;;;;;;18.80;6.32;;;;;;;21.08;55.11;99281.97;4933280;29;20513;-75
2021/08/15 06:39:37;;;;;;;17.35;5.90;;;;;;;21.11;55.23;99272.91;4934630;28;20031;-75
2021/08/15 06:42:03;;;;;;;15.75;5.72;;;;;;;21.20;54.67;99271.88;4917327;29;20079;-75
2021/08/15 06:44:36;;;;;;;13.23;5.95;;;;;;;21.28;54.76;99290.38;4933139;29;20062;-75
2021/08/15 06:47:05;;;;;;;15.07;6.00;;;;;;;21.33;54.93;99278.19;4933880;29;20055;-75
2021/08/15 06:49:36;;;;;;;14.73;5.78;;;;;;;21.41;54.28;99284.72;4933333;29;20497;-75
2021/08/15 06:52:03;;;;;;;13.50;5.60;;;;;;;21.44;52.81;99275.66;4934458;29;20047;-75
2021/08/15 06:54:29;;;;;;;16.58;5.45;;;;;;;21.45;52.64;99300.28;4916833;29;20056;-75
2021/08/15 06:56:58;;;;;;;13.40;5.70;;;;;;;21.47;52.54;99289.63;4933368;29;20055;-75
2021/08/15 06:59:24;;;;;;;12.77;5.72;;;;;;;21.50;52.68;99286.13;4937127;29;20505;-75
2021/08/15 07:01:50;;;;;;;11.20;5.05;;;;;;;21.50;52.54;99272.22;4936729;29;20489;-75
2021/08/15 07:04:16;;;;;;;15.30;5.63;;;;;;;21.63;52.58;99283.25;4920442;29;20092;-75
2021/08/15 07:06:44;;;;;;;12.82;5.10;;;;;;;21.69;52.50;99292.94;4937071;29;20075;-75
2021/08/15 07:09:13;;;;;;;16.15;6.53;;;;;;;21.76;52.47;99287.50;4905135;29;20044;-75
2021/08/15 07:11:39;;;;;;;13.20;5.10;;;;;;;21.81;51.79;99287.25;4936975;29;20052;-74
2021/08/15 07:14:08;;;;;;;13.02;5.25;;;;;;;21.82;51.11;99279.69;4936243;29;20048;-75
2021/08/15 07:16:37;;;;;;;12.88;4.95;;;;;;;21.88;51.01;99280.22;4937309;29;20127;-75
2021/08/15 07:19:06;;;;;;;12.77;5.20;;;;;;;21.94;51.11;99276.78;4938102;29;20043;-75
2021/08/15 07:21:35;;;;;;;19.55;5.95;;;;;;;22.04;51.04;99277.41;4938508;29;20074;-75
2021/08/15 07:24:03;;;;;;;12.18;5.30;;;;;;;22.05;49.75;99293.72;4937238;29;20142;-73
2021/08/15 07:26:30;;;;;;;11.95;5.00;;;;;;;22.10;49.81;99275.91;4937321;29;20527;-74
2021/08/15 07:28:56;;;;;;;13.02;4.75;;;;;;;22.14;49.62;99281.56;4938414;29;20405;-74
2021/08/15 07:31:22;;;;;;;13.93;4.93;;;;;;;22.06;48.93;99256.34;4938936;29;20147;-76
2021/08/15 07:33:51;;;;;;;13.07;5.43;;;;;;;22.13;49.29;99255.69;4946869;29;20052;-74
2021/08/15 07:36:20;;;;;;;13.85;4.70;;;;;;;22.20;49.47;99266.16;4936047;29;20146;-74
2021/08/15 07:38:47;;;;;;;21.70;5.13;;;;;;;22.31;49.22;99283.09;4952391;29;20071;-74
2021/08/15 07:41:20;;;;;;;13.30;4.70;;;;;;;22.36;48.65;99285.59;4934456;29;20079;-74
2021/08/15 07:43:55;;;;;;;11.82;4.55;;;;;;;22.33;48.32;99289.91;4938760;29;20052;-75
2021/08/15 07:46:22;;;;;;;17.73;4.82;;;;;;;22.42;48.46;99264.63;4920292;29;20048;-75
2021/08/15 07:48:48;;;;;;;14.73;4.78;;;;;;;22.44;48.66;99258.69;4937003;29;20078;-74
2021/08/15 07:51:18;;;;;;;15.52;4.95;;;;;;;22.49;48.65;99300.19;4920578;29;20142;-75
2021/08/15 07:53:47;;;;;;;12.60;5.35;;;;;;;22.51;48.25;99290.31;4936038;29;20048;-74
2021/08/15 07:56:17;;;;;;;13.32;4.72;;;;;;;22.55;48.21;99301.50;4936278;29;20230;-75
2021/08/15 07:58:43;;;;;;;11.13;4.90;;;;;;;22.49;47.41;99302.97;4936208;29;20040;-75
2021/08/15 08:01:14;;;;;;;17.67;5.13;;;;;;;22.42;48.00;99295.25;4937871;29;20058;-73
2021/08/15 08:03:43;;;;;;;14.05;4.82;;;;;;;22.54;48.07;99260.09;4920740;29;20161;-74
2021/08/15 08:06:09;;;;;;;12.20;4.88;;;;;;;22.59;47.70;99307.13;4937059;29;20051;-74
2021/08/15 08:08:38;;;;;;;15.65;5.00;;;;;;;22.62;47.50;99264.59;4920181;29;20055;-75
2021/08/15 08:11:07;;;;;;;13.57;5.43;;;;;;;22.73;48.17;99257.25;4934773;29;20052;-75
2021/08/15 08:13:38;;;;;;;14.85;5.28;;;;;;;22.84;47.87;99276.16;4937784;29;20058;-75
2021/08/15 08:16:04;;;;;;;16.83;5.18;;;;;;;22.90;47.98;99255.16;4934959;29;20126;-74
2021/08/15 08:18:31;;;;;;;15.18;5.63;;;;;;;22.97;47.60;99271.19;4936539;29;20052;-75
2021/08/15 08:21:01;;;;;;;12.98;5.15;;;;;;;22.98;47.37;99242.16;4937008;29;20056;-74
2021/08/15 08:23:30;;;;;;;13.23;5.15;;;;;;;23.04;47.42;99247.03;4937035;29;20088;-75
2021/08/15 08:25:59;;;;;;;11.85;4.88;;;;;;;23.17;47.20;99230.13;4919812;29;20047;-75
2021/08/15 08:28:25;;;;;;;13.70;5.03;;;;;;;23.23;47.30;99228.59;4903638;29;20082;-75
2021/08/15 08:30:53;;;;;;;13.93;4.90;;;;;;;23.33;46.95;99246.69;4920169;29;20044;-75
2021/08/15 08:33:22;;;;;;;14.38;4.80;;;;;;;23.41;46.52;99233.66;4903950;29;20056;-75
2021/08/15 08:35:48;;;;;;;15.40;5.03;;;;;;;23.41;45.93;99222.50;4903939;29;20067;-75
2021/08/15 08:38:18;;;;;;;12.73;4.73;;;;;;;23.49;45.77;99225.06;4918762;29;20429;-75
2021/08/15 08:40:47;;;;;;;14.85;5.30;;;;;;;23.56;45.86;99223.53;4903403;29;20075;-74
2021/08/15 08:43:18;;;;;;;16.85;5.00;;;;;;;23.58;44.88;99222.00;4919319;29;20048;-74
2021/08/15 08:45:46;;;;;;;11.32;4.80;;;;;;;23.61;44.23;99251.09;4936848;29;20508;-74
2021/08/15 08:48:17;;;;;;;17.58;5.30;;;;;;;23.62;44.22;99228.41;4937636;29;20052;-74
2021/08/15 08:50:50;;;;;;;19.23;5.82;;;;;;;23.65;44.45;99207.34;4926640;29;20154;-74
2021/08/15 08:53:19;;;;;;;16.17;5.05;;;;;;;23.73;44.27;99244.50;4948130;29;20065;-74
2021/08/15 08:55:45;;;;;;;16.17;5.10;;;;;;;23.81;44.73;99220.28;4953974;29;20223;-73
2021/08/15 08:58:11;;;;;;;14.75;5.07;;;;;;;23.87;44.38;99227.13;4954222;29;20048;-73
2021/08/15 09:00:38;;;;;;;13.27;5.35;;;;;;;23.88;44.17;99207.22;4959795;29;20048;-74
2021/08/15 09:03:04;;;;;;;18.25;5.35;;;;;;;24.00;43.71;99202.56;4923543;29;20314;-75
2021/08/15 09:05:34;;;;;;;16.33;4.97;;;;;;;23.93;43.63;99226.41;4904314;29;20052;-74
2021/08/15 09:08:24;;;;;;;14.45;5.15;;;;;;;23.98;43.54;99210.50;4921236;29;20059;-75
2021/08/15 09:10:52;;;;;;;13.25;5.07;;;;;;;23.99;43.66;99203.75;4935062;29;20138;-75
2021/08/15 09:13:28;;;;;;;13.18;4.63;;;;;;;24.07;43.59;99197.09;4934332;29;20504;-74
2021/08/15 09:15:57;;;;;;;17.77;4.65;;;;;;;24.08;43.01;99188.34;4919058;29;20080;-75
2021/08/15 09:18:27;;;;;;;14.90;5.25;;;;;;;24.20;42.94;99206.00;4940669;29;20075;-71
2021/08/15 09:20:55;;;;;;;17.35;5.38;;;;;;;24.28;43.21;99193.75;4923439;29;20151;-71
2021/08/15 09:23:23;;;;;;;14.45;5.25;;;;;;;24.35;42.99;99170.66;4922527;29;20091;-71
2021/08/15 09:26:09;;;;;;;12.65;4.45;;;;;;;24.46;42.22;99184.75;4935431;29;20123;-71
2021/08/15 09:28:35;;;;;;;10.77;4.80;;;;;;;24.55;41.83;99182.41;4934588;29;20508;-72
2021/08/15 09:31:24;;;;;;;16.25;5.43;;;;;;;24.54;41.63;99182.81;4935927;29;20082;-71
2021/08/15 09:33:51;;;;;;;18.55;4.97;;;;;;;24.54;41.95;99180.03;4935059;29;20055;-72
2021/08/15 09:36:29;;;;;;;15.63;4.80;;;;;;;24.72;41.86;99182.97;4920424;29;20044;-72
2021/08/15 09:39:01;;;;;;;14.88;4.85;;;;;;;24.81;41.90;99182.66;4935058;29;20078;-72
2021/08/15 09:41:30;;;;;;;11.10;4.82;;;;;;;24.93;41.94;99162.78;4902286;29;20056;-71
2021/08/15 09:44:22;;;;;;;15.73;5.13;;;;;;;24.98;41.26;99164.44;4934073;29;20111;-71
2021/08/15 09:47:12;;;;;;;10.40;4.45;;;;;;;24.99;41.06;99157.66;4935225;29;20047;-71
2021/08/15 09:49:41;;;;;;;13.57;4.47;;;;;;;25.08;40.63;99160.09;4935863;29;20059;-72
2021/08/15 09:52:15;;;;;;;18.92;4.43;;;;;;;25.05;40.77;99161.66;4934330;29;20055;-71
2021/08/15 09:54:52;;;;;;;13.05;4.18;;;;;;;25.06;40.16;99155.69;4935203;29;20052;-71
2021/08/15 09:57:29;;;;;;;12.93;4.15;;;;;;;25.22;40.35;99148.22;4937564;29;20055;-70
2021/08/15 09:59:55;;;;;;;;;;;;;;;25.29;40.62;99162.22;4943367;29;20054;-71
2021/08/15 10:02:21;;;;;;;12.40;4.33;;;;;;;25.34;40.41;99145.06;4953852;29;19950;-72
2021/08/15 10:04:48;;;;;;;11.73;4.37;;;;;;;25.44;40.46;99149.09;4958781;29;20060;-71
2021/08/15 10:07:16;;;;;;;13.88;4.70;;;;;;;25.53;40.72;99132.03;4942490;29;20043;-71
2021/08/15 10:09:44;;;;;;;13.10;4.40;;;;;;;25.61;40.65;99134.44;4958974;28;20031;-70
2021/08/15 10:12:10;;;;;;;12.02;4.25;;;;;;;25.72;40.69;99137.28;4953274;29;20051;-72
2021/08/15 10:14:39;;;;;;;13.73;4.65;;;;;;;25.78;40.53;99132.13;4938488;29;20541;-72
2021/08/15 10:17:12;;;;;;;10.63;4.68;;;;;;;25.80;39.65;99134.50;4940257;29;20055;-72
2021/08/15 10:19:43;;;;;;;9.73;4.15;;;;;;;25.81;39.84;99127.69;4936016;29;20480;-72
2021/08/15 10:22:10;;;;;;;11.77;4.53;;;;;;;25.89;40.04;99118.13;4933784;29;20063;-71
2021/08/15 10:24:46;;;;;;;18.08;4.97;;;;;;;26.05;39.93;99121.38;4917472;29;20044;-72
2021/08/15 10:27:43;;;;;;;9.48;4.15;;;;;;;26.19;39.88;99117.81;4935098;29;20052;-72
2021/08/15 10:30:51;;;;;;;12.93;4.07;;;;;;;26.18;39.22;99112.63;4914084;29;20063;-71
2021/08/15 10:33:28;;;;;;;10.80;4.53;;;;;;;26.15;38.78;99119.78;4914055;29;20056;-72
2021/08/15 10:36:26;;;;;;;10.82;4.30;;;;;;;26.06;38.50;99133.38;4915800;29;20088;-71
2021/08/15 10:38:55;;;;;;;12.77;4.45;;;;;;;26.07;38.42;99115.38;4925568;29;20048;-71
2021/08/15 10:41:50;;;;;;;14.23;4.53;;;;;;;26.24;38.80;99124.25;4932848;29;20061;-72
2021/08/15 10:44:18;;;;;;;11.05;4.10;;;;;;;26.32;39.17;99095.03;4844508;29;20542;-72
2021/08/15 10:47:11;;;;;;;12.15;4.30;;;;;;;26.30;38.07;99100.22;4866080;29;20407;-72
2021/08/15 10:49:52;;;;;;;12.52;4.80;;;;;;;26.33;38.32;99113.44;4932118;29;20061;-72
2021/08/15 10:52:42;;;;;;;9.88;4.30;;;;;;;26.40;38.47;99107.84;4916893;29;20054;-72
2021/08/15 10:55:12;;;;;;;11.15;4.68;;;;;;;26.50;38.63;99102.63;4904075;29;20083;-72
2021/08/15 10:57:49;;;;;;;11.82;4.43;;;;;;;26.51;38.54;99079.81;4915252;29;20422;-72
2021/08/15 11:00:43;;;;;;;12.48;4.07;;;;;;;26.69;38.47;99096.59;4915102;29;20402;-72
2021/08/15 11:03:55;;;;;;;10.27;4.55;;;;;;;26.75;38.09;99083.78;4897666;29;20051;-72
2021/08/15 11:06:55;;;;;;;10.73;4.68;;;;;;;26.79;37.96;99105.41;4930178;29;20059;-69
2021/08/15 11:09:21;;;;;;;11.57;4.68;;;;;;;26.89;37.78;99085.78;4933955;29;20052;-71
2021/08/15 11:12:11;;;;;;;11.77;4.38;;;;;;;27.01;37.03;99087.38;4916538;29;20048;-71
2021/08/15 11:14:59;;;;;;;11.52;4.40;;;;;;;27.17;37.36;99103.75;4936856;29;20063;-71
2021/08/15 11:17:27;;;;;;;10.52;4.50;;;;;;;27.14;37.28;99096.16;4932706;29;20497;-71
2021/08/15 11:19:54;;;;;;;15.35;4.72;;;;;;;27.21;37.37;99083.31;4932390;29;20103;-70
2021/08/15 11:22:27;;;;;;;13.90;4.45;;;;;;;27.32;36.90;99090.50;4931996;29;20224;-71
2021/08/15 11:25:01;;;;;;;9.75;4.60;;;;;;;27.28;37.22;99095.31;4933857;29;20052;-71
2021/08/15 11:27:36;;;;;;;11.73;4.40;;;;;;;27.21;37.35;99067.28;4933893;29;20055;-71
2021/08/15 11:30:13;;;;;;;15.88;4.60;;;;;;;27.20;37.08;99093.75;4916435;29;20059;-72
2021/08/15 11:32:40;;;;;;;10.95;4.25;;;;;;;27.26;36.80;99089.31;4932376;29;20062;-71
2021/08/15 11:35:12;;;;;;;18.33;4.85;;;;;;;27.26;37.25;99077.28;4932414;29;20070;-71
2021/08/15 11:37:47;;;;;;;14.88;4.80;;;;;;;27.49;37.51;99070.38;4932494;29;20055;-71